Time;durP1;ratioP1;P1;durP2;ratioP2;P2;SDS_P1;SDS_P2;PMS_P1;PMS_P2;Temp;Humidity;BMP_temperature;BMP_pressure;BME280_temperature;BME280_humidity;BME280_pressure;Samples;Min_cycle;Max_cycle;Signal;HPM_P1;HPM_P2
2021/12/18 00:00:13;;;;;;;7.78;3.10;;;;;;;2.24;85.59;100386.41;5078511;28;20056;-72
2021/12/18 00:03:02;;;;;;;4.80;2.75;;;;;;;2.24;85.56;100374.31;5072705;28;20165;-70
2021/12/18 00:05:47;;;;;;;5.10;2.75;;;;;;;2.29;84.79;100382.88;5072153;28;20115;-71
2021/12/18 00:08:33;;;;;;;7.93;2.92;;;;;;;2.23;85.17;100388.13;5071689;28;20051;-71
2021/12/18 00:11:19;;;;;;;6.43;3.05;;;;;;;2.33;85.48;100388.91;5070491;28;20051;-73
2021/12/18 00:14:05;;;;;;;6.47;2.88;;;;;;;2.17;85.04;100385.59;5071566;28;20072;-72
2021/12/18 00:16:51;;;;;;;7.90;3.03;;;;;;;2.21;85.17;100398.47;5084388;28;20059;-70
2021/12/18 00:19:37;;;;;;;5.40;3.05;;;;;;;2.22;85.18;100384.66;5093523;28;20039;-71
2021/12/18 00:22:23;;;;;;;7.22;3.22;;;;;;;2.29;85.58;100401.00;5080530;28;20058;-71
2021/12/18 00:25:10;;;;;;;6.38;2.85;;;;;;;2.31;84.83;100401.84;5076335;28;20051;-73
2021/12/18 00:27:56;;;;;;;8.98;2.97;;;;;;;2.31;84.55;100407.03;5072715;28;20059;-72
2021/12/18 00:30:42;;;;;;;6.53;3.15;;;;;;;2.31;84.41;100395.81;5072533;28;20682;-71
2021/12/18 00:33:27;;;;;;;7.97;2.92;;;;;;;2.40;84.77;100411.25;5073285;28;20107;-72
2021/12/18 00:36:13;;;;;;;5.95;2.88;;;;;;;2.26;84.16;100398.44;5071371;28;20047;-73
2021/12/18 00:38:59;;;;;;;5.35;2.78;;;;;;;2.25;84.72;100409.66;5071697;28;20406;-71
2021/12/18 00:44:30;;;;;;;6.80;3.00;;;;;;;2.38;83.69;100420.78;5072082;28;20056;-73
2021/12/18 00:47:17;;;;;;;6.03;2.60;;;;;;;2.31;84.47;100394.09;5071589;28;20411;-74
2021/12/18 00:50:04;;;;;;;8.75;2.70;;;;;;;2.29;83.81;100424.28;5072113;28;20055;-72
2021/12/18 00:52:51;;;;;;;6.25;3.03;;;;;;;2.29;83.82;100406.16;5076868;28;20162;-70
2021/12/18 00:55:38;;;;;;;7.95;2.85;;;;;;;2.29;83.74;100410.47;5071621;28;20052;-73
2021/12/18 00:58:23;;;;;;;5.22;2.63;;;;;;;2.36;83.59;100421.63;5071845;28;20123;-73
2021/12/18 01:01:10;;;;;;;5.60;2.35;;;;;;;2.31;83.35;100414.78;5071546;28;20052;-72
2021/12/18 01:03:57;;;;;;;5.28;2.28;;;;;;;2.40;83.61;100419.00;5072247;28;20055;-72
2021/12/18 01:06:42;;;;;;;5.82;2.83;;;;;;;2.29;83.89;100426.00;5076439;28;20060;-70
2021/12/18 01:12:39;;;;;;;4.82;2.53;;;;;;;2.29;84.81;100432.03;5070404;28;20067;-70
2021/12/18 01:24:21;;;;;;;4.00;2.65;;;;;;;2.41;83.40;100412.97;5074756;28;20395;-72
2021/12/18 01:27:07;;;;;;;5.32;2.90;;;;;;;2.39;83.32;100419.88;5074718;28;20071;-72
2021/12/18 01:29:53;;;;;;;6.20;2.65;;;;;;;2.42;83.08;100416.41;5074527;28;20059;-70
2021/12/18 01:32:39;;;;;;;10.30;2.92;;;;;;;2.36;82.95;100430.25;5074329;28;20048;-71
2021/12/18 01:35:25;;;;;;;6.32;2.42;;;;;;;2.47;83.61;100445.69;5066242;28;20059;-73
2021/12/18 01:38:12;;;;;;;5.30;2.78;;;;;;;2.56;83.32;100448.19;5075131;28;20063;-72
2021/12/18 01:40:59;;;;;;;4.82;2.30;;;;;;;2.39;82.33;100422.47;5075702;28;20051;-72
2021/12/18 01:51:15;;;;;;;7.50;2.63;;;;;;;2.59;82.45;100452.50;5093446;28;20533;-71
2021/12/18 01:53:18;;;;;;;4.78;2.45;;;;;;;2.63;81.04;100448.16;5074811;28;20075;-72
2021/12/18 01:56:04;;;;;;;11.57;2.95;;;;;;;2.62;81.92;100446.44;5073305;28;20071;-73
2021/12/18 01:58:50;;;;;;;9.90;2.92;;;;;;;2.56;81.19;100455.13;5078959;28;20095;-72
2021/12/18 02:01:36;;;;;;;4.65;2.63;;;;;;;2.73;81.69;100460.13;5074397;28;20067;-72
2021/12/18 02:04:22;;;;;;;4.97;2.20;;;;;;;2.88;81.65;100460.88;5074329;28;20055;-70
2021/12/18 02:07:08;;;;;;;5.32;2.30;;;;;;;2.86;80.84;100465.22;5079643;28;20048;-73
2021/12/18 02:10:04;;;;;;;5.93;2.92;;;;;;;2.83;80.52;100461.78;5073941;28;20063;-73
2021/12/18 02:22:11;;;;;;;6.13;2.72;;;;;;;2.68;82.01;100467.06;5073347;28;20051;-72
2021/12/18 02:24:57;;;;;;;9.45;3.40;;;;;;;2.47;82.01;100481.91;5074372;28;20494;-72
2021/12/18 02:27:43;;;;;;;6.50;2.88;;;;;;;2.41;81.75;100469.03;5074803;28;20047;-72
2021/12/18 02:30:31;;;;;;;8.70;2.50;;;;;;;2.49;83.05;100472.41;5075108;28;20059;-70
2021/12/18 02:33:17;;;;;;;4.85;2.35;;;;;;;2.55;82.55;100467.19;5075228;28;20051;-73
2021/12/18 02:36:07;;;;;;;5.22;3.08;;;;;;;2.64;82.08;100466.28;5076043;28;20048;-72
2021/12/18 02:39:42;;;;;;;5.13;2.50;;;;;;;2.37;82.05;100455.25;5066185;28;20834;-69
2021/12/18 02:42:11;;;;;;;5.70;2.30;;;;;;;2.33;82.38;100459.56;5080404;28;20055;-69
2021/12/18 02:44:57;;;;;;;4.68;2.25;;;;;;;2.25;83.05;100448.47;5075959;28;20048;-71
2021/12/18 02:47:47;;;;;;;7.53;2.42;;;;;;;2.42;82.82;100465.56;5064918;28;20056;-72
2021/12/18 02:50:33;;;;;;;6.18;2.42;;;;;;;2.36;82.18;100442.31;5073346;28;20056;-72
2021/12/18 02:53:19;;;;;;;5.85;2.90;;;;;;;2.53;81.78;100453.41;5072787;28;20055;-71
2021/12/18 02:56:09;;;;;;;5.93;2.88;;;;;;;2.45;82.23;100460.34;5073198;28;20051;-72
2021/12/18 02:59:00;;;;;;;7.50;2.90;;;;;;;2.13;82.42;100427.84;5071691;28;20474;-71
2021/12/18 03:01:46;;;;;;;7.10;2.42;;;;;;;2.16;84.12;100457.13;5073171;28;20052;-71
2021/12/18 03:04:34;;;;;;;6.68;3.00;;;;;;;2.17;82.89;100468.34;5073441;28;20051;-71
2021/12/18 03:07:23;;;;;;;5.30;2.70;;;;;;;2.34;83.24;100458.72;5071725;28;20051;-70
2021/12/18 03:27:45;;;;;;;4.88;2.63;;;;;;;2.39;82.40;100475.94;5072357;28;20084;-72
2021/12/18 03:30:33;;;;;;;5.28;2.42;;;;;;;2.55;82.28;100480.13;5071701;28;20055;-71
2021/12/18 03:33:18;;;;;;;5.35;1.90;;;;;;;2.49;82.12;100481.91;5071777;28;20047;-72
2021/12/18 03:36:06;;;;;;;5.53;2.40;;;;;;;2.38;81.55;100476.81;5072360;28;20064;-72
2021/12/18 03:38:52;;;;;;;5.18;2.35;;;;;;;2.40;81.58;100490.59;5072321;28;20399;-72
2021/12/18 03:41:38;;;;;;;3.60;2.38;;;;;;;2.28;81.96;100489.81;5071188;28;20052;-73
2021/12/18 03:44:24;;;;;;;8.38;2.78;;;;;;;2.26;82.08;100485.50;5077599;28;20059;-73
2021/12/18 03:47:09;;;;;;;5.28;2.30;;;;;;;2.31;82.92;100486.34;5072976;28;20063;-72
2021/12/18 03:49:55;;;;;;;5.45;2.60;;;;;;;2.07;82.16;100483.88;5077285;28;20051;-71
2021/12/18 03:52:41;;;;;;;5.40;2.63;;;;;;;2.10;82.74;100493.38;5072170;28;20079;-72
2021/12/18 03:55:27;;;;;;;6.70;2.35;;;;;;;2.02;82.84;100471.88;5070757;28;20048;-75
2021/12/18 03:58:13;;;;;;;6.10;2.60;;;;;;;1.99;82.27;100461.53;5072468;28;20103;-71
2021/12/18 04:00:59;;;;;;;5.57;3.20;;;;;;;1.99;82.19;100456.38;5072897;28;20095;-72
2021/12/18 04:03:45;;;;;;;8.55;2.50;;;;;;;1.99;81.99;100477.06;5071442;28;20055;-73
2021/12/18 04:06:31;;;;;;;6.75;1.98;;;;;;;2.09;82.30;100465.78;5071655;28;20071;-71
2021/12/18 04:09:17;;;;;;;6.22;2.00;;;;;;;2.23;82.46;100476.06;5072560;28;20047;-72
2021/12/18 04:12:03;;;;;;;5.40;2.60;;;;;;;2.08;81.32;100470.09;5072422;28;20063;-73
2021/12/18 04:14:49;;;;;;;5.93;2.42;;;;;;;2.22;81.80;100480.34;5071306;28;20063;-73
2021/12/18 04:17:35;;;;;;;4.72;2.03;;;;;;;2.24;82.08;100472.59;5071883;28;20044;-73
2021/12/18 04:20:21;;;;;;;5.35;2.13;;;;;;;2.08;80.34;100467.53;5072009;28;20402;-71
2021/12/18 04:23:07;;;;;;;3.00;1.60;;;;;;;2.13;81.43;100500.25;5071412;28;20051;-72
2021/12/18 04:25:55;;;;;;;9.20;2.50;;;;;;;1.87;81.43;100467.63;5070750;28;20063;-71
2021/12/18 04:28:40;;;;;;;6.95;1.92;;;;;;;2.10;81.67;100511.47;5071055;28;20048;-73
2021/12/18 04:31:25;;;;;;;6.60;2.13;;;;;;;2.13;80.57;100506.28;5070378;28;20051;-69
2021/12/18 04:34:11;;;;;;;5.53;2.50;;;;;;;2.17;80.47;100510.56;5071857;28;20820;-71
2021/12/18 04:36:57;;;;;;;6.53;2.60;;;;;;;2.30;81.42;100493.22;5070795;28;20064;-71
2021/12/18 04:39:43;;;;;;;4.28;1.95;;;;;;;2.50;82.43;100502.59;5062796;28;20055;-69
2021/12/18 04:42:28;;;;;;;5.00;1.80;;;;;;;2.30;83.06;100501.00;5071182;28;20388;-74
2021/12/18 04:45:14;;;;;;;4.55;1.88;;;;;;;2.32;83.17;100504.44;5071666;28;20059;-74
2021/12/18 04:48:00;;;;;;;5.07;1.90;;;;;;;2.11;82.88;100484.75;5089897;28;20048;-74
2021/12/18 04:50:46;;;;;;;5.85;2.03;;;;;;;2.08;83.31;100498.56;5070212;28;20055;-70
2021/12/18 04:53:32;;;;;;;4.75;2.00;;;;;;;2.04;82.65;100507.19;5076311;28;20052;-71
2021/12/18 04:56:18;;;;;;;5.50;2.30;;;;;;;1.93;83.16;100504.66;5071422;28;20048;-71
2021/12/18 04:59:05;;;;;;;5.18;2.38;;;;;;;1.88;83.53;100503.81;5070510;28;20063;-72
2021/12/18 05:01:52;;;;;;;8.25;2.20;;;;;;;1.95;82.63;100522.75;5071548;28;20056;-70
2021/12/18 05:04:37;;;;;;;6.72;2.17;;;;;;;1.85;82.60;100516.75;5071882;28;20063;-71
2021/12/18 05:07:24;;;;;;;5.50;1.80;;;;;;;1.81;82.03;100510.72;5076954;28;20064;-72
2021/12/18 05:10:12;;;;;;;5.80;2.00;;;;;;;1.95;81.70;100531.38;5078312;28;20800;-72
2021/12/18 05:13:04;;;;;;;3.83;1.77;;;;;;;2.04;81.62;100532.19;5064109;28;20059;-75
2021/12/18 05:15:50;;;;;;;4.30;1.95;;;;;;;1.88;83.84;100532.25;5056924;28;20064;-70
2021/12/18 05:18:35;;;;;;;4.05;2.00;;;;;;;1.90;82.97;100514.16;5071886;28;20056;-72
2021/12/18 05:21:21;;;;;;;3.05;1.73;;;;;;;1.81;83.16;100525.41;5071727;28;20052;-72
2021/12/18 05:24:07;;;;;;;6.07;2.55;;;;;;;1.60;82.40;100532.34;5071514;28;20051;-72
2021/12/18 05:26:53;;;;;;;3.42;1.85;;;;;;;1.46;82.86;100522.06;5076416;28;20110;-71
2021/12/18 05:29:38;;;;;;;5.28;2.00;;;;;;;1.59;82.79;100535.81;5071570;28;20506;-70
2021/12/18 05:32:25;;;;;;;5.63;2.42;;;;;;;1.55;82.87;100550.44;5071604;28;20051;-72
2021/12/18 05:35:10;;;;;;;5.90;2.03;;;;;;;1.60;82.31;100550.44;5098737;28;20063;-71
2021/12/18 05:38:04;;;;;;;4.47;2.25;;;;;;;1.57;82.71;100550.44;5071416;28;20051;-71
2021/12/18 05:40:50;;;;;;;2.30;1.42;;;;;;;1.54;82.22;100564.25;5071298;28;20055;-71
2021/12/18 05:43:35;;;;;;;4.35;1.55;;;;;;;1.64;83.44;100569.38;5070646;28;20506;-73
2021/12/18 05:46:21;;;;;;;4.70;1.88;;;;;;;1.60;81.96;100566.81;5076177;28;20055;-72
2021/12/18 05:49:07;;;;;;;5.32;2.00;;;;;;;1.50;81.05;100544.47;5071379;28;20407;-71
2021/12/18 05:51:53;;;;;;;3.38;1.48;;;;;;;1.48;81.87;100564.25;5070747;28;20106;-72
2021/12/18 05:54:39;;;;;;;4.18;1.52;;;;;;;1.56;81.79;100561.66;5076623;28;20051;-72
2021/12/18 05:57:24;;;;;;;2.90;1.98;;;;;;;1.62;82.57;100566.81;5071637;28;20400;-72
2021/12/18 06:00:11;;;;;;;4.00;1.73;;;;;;;1.40;81.28;100550.50;5071541;28;20060;-73
2021/12/18 06:02:57;;;;;;;7.97;1.75;;;;;;;1.43;81.26;100558.25;5071455;28;20506;-73
2021/12/18 06:05:43;;;;;;;4.50;2.00;;;;;;;1.30;81.87;100550.53;5073559;28;20051;-70
2021/12/18 06:08:31;;;;;;;4.80;1.30;;;;;;;1.41;81.28;100547.03;5075431;28;20067;-71
2021/12/18 06:11:20;;;;;;;4.57;1.95;;;;;;;1.34;81.16;100541.91;5079807;28;20052;-73
2021/12/18 06:14:06;;;;;;;4.07;1.52;;;;;;;1.23;81.14;100534.19;5074921;28;20147;-73
2021/12/18 06:16:51;;;;;;;5.97;1.58;;;;;;;1.42;80.09;100553.94;5073035;28;20059;-72
2021/12/18 06:19:37;;;;;;;2.90;1.77;;;;;;;1.57;80.32;100537.53;5073217;28;20047;-71
2021/12/18 06:22:23;;;;;;;3.20;1.35;;;;;;;1.58;82.44;100545.28;5072256;28;20506;-69
2021/12/18 06:25:09;;;;;;;2.70;1.48;;;;;;;1.66;79.12;100540.09;5073027;28;20051;-68
2021/12/18 06:27:55;;;;;;;2.67;1.38;;;;;;;1.65;79.09;100542.69;5074019;28;20051;-70
2021/12/18 06:30:41;;;;;;;3.40;1.65;;;;;;;1.65;78.38;100555.63;5074104;28;20051;-68
2021/12/18 06:33:27;;;;;;;3.72;1.23;;;;;;;1.56;79.32;100538.41;5073495;28;20079;-69
2021/12/18 06:36:13;;;;;;;3.15;1.50;;;;;;;1.56;77.55;100533.22;5073892;28;20406;-65
2021/12/18 06:38:59;;;;;;;2.90;1.08;;;;;;;1.60;78.24;100543.56;5073320;28;20067;-65
2021/12/18 06:41:45;;;;;;;7.03;1.58;;;;;;;1.48;77.82;100497.09;5078136;28;20071;-65
2021/12/18 06:44:32;;;;;;;4.70;1.23;;;;;;;1.53;77.95;100543.59;5073862;28;20051;-66
2021/12/18 06:47:17;;;;;;;2.38;1.15;;;;;;;1.72;77.22;100552.13;5073059;28;20048;-65
2021/12/18 06:50:05;;;;;;;2.67;1.05;;;;;;;1.72;76.84;100557.31;5073741;28;20052;-65
2021/12/18 06:52:51;;;;;;;3.60;1.00;;;;;;;1.83;76.81;100544.34;5072385;28;20411;-68
2021/12/18 06:55:36;;;;;;;2.90;1.08;;;;;;;1.69;76.44;100559.91;5073336;28;20054;-67
2021/12/18 06:58:22;;;;;;;4.43;1.58;;;;;;;1.68;76.32;100543.53;5072321;28;20052;-68
2021/12/18 07:01:29;;;;;;;3.88;1.50;;;;;;;1.87;75.13;100551.22;5077983;28;20047;-68
2021/12/18 07:04:16;;;;;;;4.20;1.40;;;;;;;1.81;76.34;100538.34;5076295;28;20051;-72
2021/12/18 07:07:01;;;;;;;3.05;1.10;;;;;;;2.04;73.74;100524.44;5074180;28;20471;-71
2021/12/18 07:09:47;;;;;;;3.90;1.40;;;;;;;1.79;75.83;100529.72;5072543;28;20399;-69
2021/12/18 07:12:34;;;;;;;4.25;1.42;;;;;;;1.80;75.58;100518.50;5069018;28;20059;-68
2021/12/18 07:15:20;;;;;;;3.00;1.30;;;;;;;2.36;73.61;100523.38;5061663;28;20400;-68
2021/12/18 07:18:07;;;;;;;2.70;1.45;;;;;;;2.58;72.74;100529.28;5070279;28;20060;-66
2021/12/18 07:20:53;;;;;;;2.63;1.40;;;;;;;2.52;72.33;100531.03;5071195;28;20404;-66
2021/12/18 07:23:40;;;;;;;3.92;1.67;;;;;;;2.70;74.43;100502.44;5071824;28;20499;-65
2021/12/18 07:26:25;;;;;;;5.20;1.30;;;;;;;3.17;72.33;100533.09;5053044;28;20056;-64
2021/12/18 07:29:11;;;;;;;3.47;1.15;;;;;;;3.45;68.22;100537.16;5063034;28;20060;-63
2021/12/18 07:31:57;;;;;;;3.58;1.40;;;;;;;3.49;68.03;100512.94;5081999;28;20566;-66
2021/12/18 07:34:43;;;;;;;3.53;1.45;;;;;;;3.77;67.39;100550.63;5073679;28;20059;-66
2021/12/18 07:37:29;;;;;;;3.00;1.45;;;;;;;4.17;65.05;100552.72;5070144;28;20056;-64
2021/12/18 07:40:16;;;;;;;3.25;1.60;;;;;;;3.63;67.39;100556.81;5074621;28;20047;-64
2021/12/18 07:43:01;;;;;;;4.38;1.50;;;;;;;4.22;66.00;100538.81;5070768;28;20531;-63
2021/12/18 07:45:47;;;;;;;5.45;2.30;;;;;;;4.17;66.80;100565.69;5055002;28;20044;-65
2021/12/18 07:48:33;;;;;;;6.88;2.13;;;;;;;4.50;66.01;100566.97;5051317;28;20060;-66
2021/12/18 07:51:19;;;;;;;3.80;1.40;;;;;;;4.93;63.92;100568.91;5036822;28;20047;-65
2021/12/18 07:54:06;;;;;;;7.80;2.15;;;;;;;6.92;73.26;100569.31;5067970;28;20047;-54
2021/12/18 07:56:52;;;;;;;4.55;1.60;;;;;;;5.35;67.47;100574.28;5083723;28;20063;-55
2021/12/18 07:59:38;;;;;;;6.50;2.25;;;;;;;5.55;71.36;100568.72;5072699;28;20071;-54
2021/12/18 08:02:24;;;;;;;4.38;1.38;;;;;;;7.77;66.18;100563.63;5071622;28;20596;-60
2021/12/18 08:05:10;;;;;;;7.72;2.13;;;;;;;7.88;64.61;100576.38;5070343;28;20047;-64
2021/12/18 08:07:55;;;;;;;4.63;2.13;;;;;;;6.43;61.47;100586.03;5069876;28;20051;-61
2021/12/18 08:10:41;;;;;;;6.47;2.53;;;;;;;6.64;61.04;100587.31;5069300;28;20407;-65
2021/12/18 08:13:27;;;;;;;7.38;2.00;;;;;;;6.41;62.56;100586.09;5067399;28;20141;-64
2021/12/18 08:16:13;;;;;;;5.10;2.20;;;;;;;6.94;60.32;100581.41;5096221;28;20063;-63
2021/12/18 08:19:00;;;;;;;5.10;2.10;;;;;;;7.50;60.20;100580.00;5071802;28;20055;-64
2021/12/18 08:21:46;;;;;;;3.80;2.17;;;;;;;5.92;64.04;100573.19;5070903;28;20403;-65
2021/12/18 08:24:32;;;;;;;4.10;2.17;;;;;;;5.99;64.02;100553.09;5076716;28;20047;-62
2021/12/18 08:27:24;;;;;;;4.75;1.77;;;;;;;6.52;61.28;100565.03;5071437;28;20519;-61
2021/12/18 08:30:11;;;;;;;6.25;1.98;;;;;;;5.78;61.55;100552.66;5068753;28;20091;-65
2021/12/18 08:32:58;;;;;;;3.00;1.70;;;;;;;5.96;61.19;100549.72;5066427;28;20047;-66
2021/12/18 08:35:44;;;;;;;3.35;1.65;;;;;;;6.07;60.02;100552.13;5070502;28;20075;-68
2021/12/18 08:38:30;;;;;;;3.08;1.45;;;;;;;7.44;57.28;100559.28;5067089;28;20055;-66
2021/12/18 08:41:16;;;;;;;4.00;1.63;;;;;;;7.68;53.86;100576.94;5068220;28;20056;-63
2021/12/18 08:44:02;;;;;;;4.57;1.58;;;;;;;8.19;53.69;100566.81;5076013;28;20047;-66
2021/12/18 08:46:48;;;;;;;4.45;2.08;;;;;;;6.43;56.74;100557.41;5075679;28;20063;-52
2021/12/18 08:49:34;;;;;;;6.75;2.00;;;;;;;7.98;55.40;100572.59;5069879;28;20064;-64
2021/12/18 08:52:21;;;;;;;7.85;2.38;;;;;;;7.95;53.65;100570.06;5069729;28;20047;-59
2021/12/18 08:55:07;;;;;;;2.67;1.45;;;;;;;7.29;54.44;100570.13;5075236;28;20051;-59
2021/12/18 08:57:55;;;;;;;4.18;1.70;;;;;;;6.77;57.58;100581.84;5066676;28;20051;-57
2021/12/18 09:00:42;;;;;;;11.98;2.83;;;;;;;7.85;61.07;100584.31;5069106;28;20048;-57
2021/12/18 09:03:28;;;;;;;6.20;1.88;;;;;;;8.56;52.81;100576.16;5074307;28;20039;-58
2021/12/18 09:06:14;;;;;;;5.70;2.30;;;;;;;8.06;55.55;100585.41;5075159;28;20542;-55
2021/12/18 09:09:00;;;;;;;4.78;1.80;;;;;;;8.21;52.57;100563.22;5065111;28;20072;-57
2021/12/18 09:11:46;;;;;;;3.63;1.60;;;;;;;7.30;55.87;100561.41;5079344;28;20048;-44
2021/12/18 09:14:32;;;;;;;6.65;1.80;;;;;;;7.51;59.96;100575.63;5071456;28;20059;-58
2021/12/18 09:17:18;;;;;;;5.78;1.83;;;;;;;6.00;60.80;100580.00;5070689;28;20048;-60
2021/12/18 09:20:04;;;;;;;8.00;2.50;;;;;;;6.74;71.29;100561.91;5071140;28;20063;-57
2021/12/18 09:22:51;;;;;;;3.70;1.70;;;;;;;6.12;63.81;100579.75;5071355;28;20052;-58
2021/12/18 09:25:37;;;;;;;6.97;2.83;;;;;;;5.37;64.90;100573.38;5071376;28;20059;-55
2021/12/18 09:28:23;;;;;;;5.63;2.58;;;;;;;5.85;70.83;100568.16;5068064;28;20059;-61
2021/12/18 09:31:09;;;;;;;5.03;2.47;;;;;;;5.30;66.03;100558.78;5071096;28;20056;-58
2021/12/18 09:33:55;;;;;;;5.50;2.58;;;;;;;4.58;74.26;100546.97;5070198;28;20047;-57
2021/12/18 09:36:41;;;;;;;8.27;2.75;;;;;;;5.32;66.54;100556.16;5076111;28;20051;-62
2021/12/18 09:39:27;;;;;;;8.18;2.38;;;;;;;4.44;68.80;100527.25;5071126;28;20064;-61
2021/12/18 09:42:12;;;;;;;10.18;3.40;;;;;;;5.22;70.87;100530.34;5075358;28;20539;-62
2021/12/18 09:44:59;;;;;;;7.78;2.67;;;;;;;6.48;70.58;100511.28;5073662;28;20048;-63
2021/12/18 09:47:46;;;;;;;4.65;2.20;;;;;;;6.92;77.02;100528.47;5073873;28;20402;-64
2021/12/18 09:50:35;;;;;;;5.55;2.33;;;;;;;7.21;63.56;100526.91;5073947;28;20106;-69
2021/12/18 09:53:21;;;;;;;7.57;2.08;;;;;;;6.90;64.55;100512.03;5074150;28;20051;-67
2021/12/18 09:56:08;;;;;;;5.57;2.33;;;;;;;5.79;65.30;100517.13;5054201;28;20396;-68
2021/12/18 09:58:54;;;;;;;5.78;2.95;;;;;;;5.88;64.62;100505.66;5062776;28;20052;-67
2021/12/18 10:01:40;;;;;;;5.82;2.72;;;;;;;6.61;63.23;100506.66;5059056;28;20514;-68
2021/12/18 10:04:34;;;;;;;6.43;2.90;;;;;;;6.62;62.83;100500.56;5069886;28;20048;-71
2021/12/18 10:07:26;;;;;;;6.65;2.90;;;;;;;5.88;64.09;100506.50;5073490;28;20060;-69
2021/12/18 10:10:12;;;;;;;7.85;2.90;;;;;;;5.46;66.33;100483.97;5060357;28;20051;-66
2021/12/18 10:13:05;;;;;;;4.85;2.78;;;;;;;5.57;65.84;100490.69;5074356;28;20060;-68
2021/12/18 10:16:10;;;;;;;4.97;2.80;;;;;;;5.49;66.43;100496.03;5074171;28;20052;-67
2021/12/18 10:18:58;;;;;;;7.93;3.13;;;;;;;6.17;63.29;100467.75;5073654;28;20054;-67
2021/12/18 10:21:54;;;;;;;7.13;3.00;;;;;;;5.55;65.28;100470.78;5073254;28;20063;-66
2021/12/18 10:24:42;;;;;;;8.07;3.45;;;;;;;5.92;64.52;100455.28;5073550;28;20055;-65
2021/12/18 10:27:28;;;;;;;6.13;3.10;;;;;;;6.77;60.87;100446.38;5079533;28;20518;-69
2021/12/18 10:30:20;;;;;;;8.55;3.47;;;;;;;6.19;62.86;100455.56;5078944;28;20052;-64
2021/12/18 10:33:07;;;;;;;;;;;;;;;6.03;62.89;100432.47;5072210;28;20055;-63
2021/12/18 10:35:55;;;;;;;6.65;2.60;;;;;;;6.09;63.53;100443.69;5071958;28;19913;-65
2021/12/18 10:38:55;;;;;;;6.25;2.80;;;;;;;6.60;61.77;100437.22;5073890;28;20372;-71
2021/12/18 10:41:41;;;;;;;6.13;2.42;;;;;;;7.24;60.22;100438.16;5073550;28;20063;-63
2021/12/18 10:44:26;;;;;;;7.20;2.78;;;;;;;6.12;62.62;100428.00;5073091;28;20063;-68
2021/12/18 10:47:14;;;;;;;4.55;2.42;;;;;;;6.28;62.68;100439.72;5071919;28;20099;-59
2021/12/18 10:50:00;;;;;;;3.50;2.00;;;;;;;5.89;63.57;100430.16;5065085;28;20068;-66
2021/12/18 10:59:36;;;;;;;5.03;2.40;;;;;;;6.39;61.87;100429.06;4997438;28;20081;-61
2021/12/18 11:02:21;;;;;;;2.78;1.83;;;;;;;5.64;63.16;100424.66;5025122;28;20099;-61
2021/12/18 11:05:16;;;;;;;5.18;2.55;;;;;;;5.71;63.24;100423.66;5033731;28;20435;-61
2021/12/18 11:08:10;;;;;;;4.05;2.20;;;;;;;5.49;64.49;100439.69;5033263;28;20049;-63
2021/12/18 11:14:20;;;;;;;4.47;2.25;;;;;;;6.06;63.26;100434.16;5002857;28;20065;-70
2021/12/18 11:17:10;;;;;;;3.97;2.42;;;;;;;5.81;64.21;100423.44;4984353;28;20050;-64
2021/12/18 11:19:56;;;;;;;5.32;2.25;;;;;;;5.98;64.01;100444.72;5006351;28;20046;-68
2021/12/18 11:22:42;;;;;;;4.07;2.15;;;;;;;5.52;65.83;100434.44;4996097;28;20048;-60
2021/12/18 11:25:28;;;;;;;5.07;1.90;;;;;;;6.15;64.30;100433.94;5034605;28;20076;-67
2021/12/18 11:28:16;;;;;;;4.60;2.03;;;;;;;6.14;63.65;100421.84;5019633;28;20061;-65
2021/12/18 11:31:03;;;;;;;6.45;2.58;;;;;;;5.03;65.78;100402.47;5012526;28;20060;-71
2021/12/18 11:33:49;;;;;;;4.00;1.77;;;;;;;4.88;67.80;100424.44;5025117;28;20068;-64
2021/12/18 11:36:39;;;;;;;4.72;2.00;;;;;;;5.17;67.02;100381.44;5031052;28;20060;-68
2021/12/18 11:39:30;;;;;;;5.47;2.45;;;;;;;4.83;67.23;100402.88;5032265;28;20404;-71
2021/12/18 11:42:17;;;;;;;5.20;2.22;;;;;;;4.97;66.81;100393.09;5031078;28;20064;-75
2021/12/18 11:45:05;;;;;;;4.80;2.17;;;;;;;5.11;66.45;100400.59;5034194;28;20519;-61
2021/12/18 11:47:56;;;;;;;5.07;1.90;;;;;;;5.57;67.82;100397.06;5032869;28;20124;-62
2021/12/18 11:50:42;;;;;;;4.65;1.88;;;;;;;5.74;64.51;100383.72;5031601;28;20052;-66
2021/12/18 11:53:32;;;;;;;4.65;1.50;;;;;;;5.51;66.29;100383.34;5032977;28;20048;-61
2021/12/18 11:56:19;;;;;;;3.90;2.00;;;;;;;5.36;65.84;100370.66;5032703;28;20053;-64
2021/12/18 11:59:05;;;;;;;4.57;2.40;;;;;;;5.02;68.22;100354.88;5032448;28;20061;-65
2021/12/18 12:01:51;;;;;;;5.75;2.20;;;;;;;4.39;70.67;100364.72;5029842;28;20048;-62
2021/12/18 12:04:58;;;;;;;5.38;2.05;;;;;;;4.70;69.56;100364.13;5021642;28;20519;-59
2021/12/18 12:07:45;;;;;;;3.78;1.80;;;;;;;5.06;67.65;100363.44;5013389;28;20053;-64
2021/12/18 12:11:04;;;;;;;3.60;1.88;;;;;;;4.81;68.66;100357.00;5020599;28;20052;-63
2021/12/18 12:14:06;;;;;;;4.97;2.28;;;;;;;4.47;69.37;100342.06;5029149;28;20523;-64
2021/12/18 12:16:51;;;;;;;4.93;2.20;;;;;;;4.71;68.88;100352.03;4993227;28;20397;-64
2021/12/18 12:19:39;;;;;;;3.53;2.00;;;;;;;4.39;68.76;100326.63;5012200;28;20376;-67
2021/12/18 12:22:43;;;;;;;5.38;2.08;;;;;;;4.36;69.73;100333.63;5032718;28;20060;-66
2021/12/18 12:25:47;;;;;;;6.60;2.03;;;;;;;4.89;69.22;100298.88;5032351;28;20057;-63
2021/12/18 12:28:33;;;;;;;4.28;2.00;;;;;;;4.60;68.49;100331.47;5028984;28;20523;-62
2021/12/18 12:31:19;;;;;;;3.35;2.13;;;;;;;4.61;68.26;100312.38;5032194;28;20064;-65
2021/12/18 12:34:33;;;;;;;5.70;2.10;;;;;;;4.62;68.39;100321.91;5032215;28;20056;-60
2021/12/18 12:37:40;;;;;;;4.45;2.22;;;;;;;4.32;69.74;100312.88;5032101;28;20415;-62
2021/12/18 12:40:35;;;;;;;5.20;2.47;;;;;;;4.08;70.67;100298.59;5031068;28;20412;-59
2021/12/18 12:43:25;;;;;;;6.93;2.75;;;;;;;4.07;71.38;100296.91;5036812;28;20522;-59
2021/12/18 12:46:16;;;;;;;9.05;2.80;;;;;;;4.11;71.81;100297.72;5032176;28;20103;-61
2021/12/18 12:49:08;;;;;;;6.43;2.28;;;;;;;4.16;71.92;100291.56;5044392;28;20227;-59
2021/12/18 12:51:57;;;;;;;;;;;;;;;4.02;72.04;100285.75;5031804;28;20068;-58
2021/12/18 12:55:06;;;;;;;5.80;2.53;;;;;;;4.04;71.97;100278.81;5031783;28;19999;-59
2021/12/18 12:58:01;;;;;;;8.93;2.55;;;;;;;4.16;72.02;100275.16;4991992;28;20057;-60
2021/12/18 13:00:50;;;;;;;5.90;3.00;;;;;;;4.22;72.51;100279.38;4992401;28;20053;-60
2021/12/18 13:03:43;;;;;;;6.97;2.40;;;;;;;4.19;72.54;100285.47;5013953;28;20053;-59
2021/12/18 13:06:29;;;;;;;7.45;2.65;;;;;;;4.19;72.45;100282.88;5011687;28;20704;-59
2021/12/18 13:09:14;;;;;;;6.68;2.92;;;;;;;4.21;72.89;100275.06;5018753;28;20514;-60
2021/12/18 13:12:04;;;;;;;7.38;3.00;;;;;;;4.03;73.25;100269.31;5036354;28;20048;-59
2021/12/18 13:14:52;;;;;;;5.07;2.20;;;;;;;4.27;72.78;100265.44;5034143;28;20447;-59
2021/12/18 13:17:37;;;;;;;6.75;3.00;;;;;;;4.28;72.74;100248.09;5034754;28;20052;-59
2021/12/18 13:20:23;;;;;;;6.90;3.15;;;;;;;4.12;74.02;100255.31;5030867;28;20048;-59
2021/12/18 13:23:09;;;;;;;11.27;3.58;;;;;;;4.13;74.56;100250.09;5041694;28;20054;-59
2021/12/18 13:25:55;;;;;;;7.95;3.30;;;;;;;4.23;74.12;100255.16;4995851;28;20049;-58
2021/12/18 13:28:54;;;;;;;7.20;2.90;;;;;;;4.17;74.87;100261.28;4996259;28;20069;-59
2021/12/18 13:31:58;;;;;;;7.63;3.13;;;;;;;4.01;75.61;100264.16;5015293;28;20052;-58
2021/12/18 13:34:44;;;;;;;6.90;3.10;;;;;;;4.06;75.73;100264.91;5013789;28;20057;-59
2021/12/18 13:37:30;;;;;;;8.68;3.55;;;;;;;3.99;77.19;100240.00;5013731;28;20049;-59
2021/12/18 13:40:16;;;;;;;8.18;3.13;;;;;;;3.95;76.59;100256.47;5013744;28;20076;-58
2021/12/18 13:43:10;;;;;;;7.80;3.20;;;;;;;4.01;76.34;100263.31;5013590;28;20404;-57
2021/12/18 13:46:02;;;;;;;6.97;2.50;;;;;;;3.85;77.56;100262.72;5013507;28;20049;-58
2021/12/18 13:48:49;;;;;;;;;;;;;;;4.05;76.56;100258.03;5014926;28;20404;-58
2021/12/18 13:51:34;;;;;;;9.02;3.60;;;;;;;4.16;76.42;100247.44;5015358;28;19935;-60
2021/12/18 13:54:20;;;;;;;7.80;3.95;;;;;;;3.78;77.74;100239.47;5028477;28;20053;-59
2021/12/18 13:57:06;;;;;;;8.40;3.40;;;;;;;3.76;78.23;100219.63;5028064;28;20061;-59
2021/12/18 13:59:59;;;;;;;7.60;3.20;;;;;;;3.84;78.51;100235.91;5015743;28;20064;-58
2021/12/18 14:02:45;;;;;;;6.03;3.38;;;;;;;3.57;79.44;100219.94;5015236;28;20065;-59
2021/12/18 14:05:31;;;;;;;6.82;3.33;;;;;;;3.70;79.68;100233.56;5015272;28;20053;-59
2021/12/18 14:08:18;;;;;;;7.93;3.58;;;;;;;3.63;80.33;100214.66;5015439;28;20063;-59